Time;durP1;ratioP1;P1;durP2;ratioP2;P2;SDS_P1;SDS_P2;PMS_P1;PMS_P2;Temp;Humidity;BMP_temperature;BMP_pressure;BME280_temperature;BME280_humidity;BME280_pressure;Samples;Min_cycle;Max_cycle;Signal;HPM_P1;HPM_P2
2023/03/21 00:01:42;;;;;;;26.88;11.15;;;;;;;6.59;100.00;101081.09;6002133;28;20394;-72
2023/03/21 00:04:37;;;;;;;31.37;12.40;;;;;;;6.62;100.00;101079.19;6001705;28;20045;-72
2023/03/21 00:07:33;;;;;;;25.47;11.93;;;;;;;6.57;100.00;101075.09;6002063;28;20470;-72
2023/03/21 00:10:28;;;;;;;36.55;12.77;;;;;;;6.54;100.00;101069.22;6002418;28;20030;-72
2023/03/21 00:13:25;;;;;;;28.58;12.98;;;;;;;6.57;100.00;101069.00;6001517;28;20043;-72
2023/03/21 00:16:20;;;;;;;27.40;12.18;;;;;;;6.52;100.00;101071.94;6002127;28;20042;-71
2023/03/21 00:19:18;;;;;;;26.63;12.73;;;;;;;6.55;100.00;101079.63;6002096;28;20057;-72
2023/03/21 00:22:13;;;;;;;34.72;12.90;;;;;;;6.49;100.00;101072.19;6001265;28;20023;-71
2023/03/21 00:25:09;;;;;;;31.98;12.82;;;;;;;6.44;100.00;101058.47;6002006;28;20398;-72
2023/03/21 00:28:04;;;;;;;34.60;11.73;;;;;;;6.50;100.00;101057.19;6001732;28;20105;-71
2023/03/21 00:31:00;;;;;;;30.57;12.77;;;;;;;6.54;100.00;101053.41;6002087;28;20066;-72
2023/03/21 00:33:55;;;;;;;29.60;12.67;;;;;;;6.58;100.00;101068.88;6001451;28;20038;-72
2023/03/21 00:36:51;;;;;;;33.40;13.52;;;;;;;6.54;100.00;101048.13;6000534;28;20045;-72
2023/03/21 00:39:47;;;;;;;31.23;12.40;;;;;;;6.62;100.00;101053.69;6001974;28;20046;-71
2023/03/21 00:42:43;;;;;;;33.25;14.05;;;;;;;6.64;100.00;101062.31;6000724;28;20215;-73
2023/03/21 00:45:38;;;;;;;29.77;13.10;;;;;;;6.57;100.00;101053.19;6002093;28;20058;-71
2023/03/21 00:48:33;;;;;;;31.03;12.90;;;;;;;6.62;100.00;101066.84;6001517;28;20046;-72
2023/03/21 00:51:29;;;;;;;27.35;12.95;;;;;;;6.63;100.00;101050.09;6001662;28;20479;-72
2023/03/21 00:54:24;;;;;;;33.65;14.25;;;;;;;6.60;100.00;101053.78;6003912;28;20051;-72
2023/03/21 00:57:20;;;;;;;32.60;13.88;;;;;;;6.54;100.00;101042.88;6005672;28;20035;-71
2023/03/21 01:00:16;;;;;;;31.05;12.90;;;;;;;6.54;100.00;101038.44;6006083;28;20038;-71
2023/03/21 01:03:13;;;;;;;33.08;13.32;;;;;;;6.64;100.00;101035.97;6005018;28;20034;-71
2023/03/21 01:06:12;;;;;;;29.92;12.73;;;;;;;6.67;100.00;101043.66;6005935;28;20467;-71
2023/03/21 01:09:16;;;;;;;26.73;11.98;;;;;;;6.58;100.00;101017.97;6005650;28;20121;-72
2023/03/21 01:12:11;;;;;;;34.75;13.52;;;;;;;6.71;100.00;101028.47;6004622;28;20035;-72
2023/03/21 01:15:07;;;;;;;26.25;12.85;;;;;;;6.71;100.00;101025.81;6005854;28;20042;-72
2023/03/21 01:18:02;;;;;;;26.88;12.35;;;;;;;6.82;100.00;101037.22;6005905;28;20034;-72
2023/03/21 01:20:59;;;;;;;35.90;13.63;;;;;;;6.77;100.00;101020.91;6005610;28;20114;-73
2023/03/21 01:23:54;;;;;;;35.13;14.75;;;;;;;6.80;100.00;101028.59;6004362;28;20035;-72
2023/03/21 01:26:49;;;;;;;34.40;14.97;;;;;;;6.77;100.00;101023.56;6005092;28;20041;-70
2023/03/21 01:29:45;;;;;;;28.87;11.33;;;;;;;6.73;100.00;101023.91;6005298;28;20027;-71
2023/03/21 01:32:40;;;;;;;35.33;13.93;;;;;;;6.85;100.00;101023.00;6004180;28;20282;-73
2023/03/21 01:35:36;;;;;;;33.93;13.70;;;;;;;6.77;100.00;101018.28;6005035;28;20022;-73
2023/03/21 01:38:31;;;;;;;35.05;13.77;;;;;;;6.93;100.00;101028.53;6005123;28;20031;-72
2023/03/21 01:41:29;;;;;;;38.33;13.93;;;;;;;6.82;100.00;101010.88;6004794;28;20038;-70
2023/03/21 01:44:25;;;;;;;29.35;13.40;;;;;;;6.82;100.00;101016.13;6004115;28;20517;-71
2023/03/21 01:47:20;;;;;;;34.60;14.77;;;;;;;6.72;100.00;101007.25;6003572;28;20074;-72
2023/03/21 01:50:16;;;;;;;29.00;13.07;;;;;;;6.81;100.00;101008.34;6005062;28;20030;-72
2023/03/21 01:53:11;;;;;;;31.73;13.25;;;;;;;6.80;100.00;100999.59;6003802;28;20085;-71
2023/03/21 01:56:17;;;;;;;35.58;13.63;;;;;;;6.86;100.00;101012.34;6019836;28;20027;-72
2023/03/21 01:59:20;;;;;;;31.33;13.18;;;;;;;6.85;100.00;101012.47;6003448;28;20505;-72
2023/03/21 02:02:22;;;;;;;32.53;13.00;;;;;;;6.77;100.00;101013.00;6003685;28;20448;-72
2023/03/21 02:05:22;;;;;;;29.65;12.82;;;;;;;6.76;100.00;101005.22;6003478;28;20035;-71
2023/03/21 02:08:17;;;;;;;30.50;12.45;;;;;;;6.67;100.00;100996.22;5999627;28;20134;-72
2023/03/21 02:11:13;;;;;;;28.47;13.23;;;;;;;6.86;100.00;101012.34;6004046;28;20042;-73
2023/03/21 02:14:12;;;;;;;32.28;12.18;;;;;;;6.79;100.00;101000.59;6002354;28;20301;-73
2023/03/21 02:17:35;;;;;;;26.88;11.30;;;;;;;6.92;100.00;100997.84;6004392;28;20105;-73
2023/03/21 02:20:42;;;;;;;29.55;12.55;;;;;;;6.89;100.00;101001.56;6019026;28;20035;-71
2023/03/21 02:24:00;;;;;;;26.33;11.40;;;;;;;6.81;100.00;100982.84;6003006;28;20046;-72
2023/03/21 02:27:02;;;;;;;27.52;11.20;;;;;;;6.85;100.00;100978.19;5998706;28;20030;-72
2023/03/21 02:30:17;;;;;;;25.15;11.63;;;;;;;7.00;100.00;100988.41;6002727;28;20030;-71
2023/03/21 02:33:30;;;;;;;26.00;11.45;;;;;;;6.94;100.00;100988.88;6003076;28;20685;-73
2023/03/21 02:36:32;;;;;;;28.73;12.48;;;;;;;6.79;100.00;100958.41;6018503;28;20041;-72
2023/03/21 02:39:41;;;;;;;25.90;11.30;;;;;;;6.87;100.00;100971.84;6002851;28;20173;-73
2023/03/21 02:42:57;;;;;;;27.58;12.40;;;;;;;6.96;100.00;100972.94;6018074;28;20027;-72
2023/03/21 02:46:09;;;;;;;27.63;12.05;;;;;;;6.98;100.00;100979.78;5992182;28;20054;-73
2023/03/21 02:49:11;;;;;;;28.40;11.02;;;;;;;6.96;100.00;100971.13;6002476;28;20045;-73
2023/03/21 02:52:08;;;;;;;27.02;11.85;;;;;;;6.98;100.00;100976.31;6002716;28;20163;-73
2023/03/21 02:55:04;;;;;;;28.05;11.23;;;;;;;6.95;100.00;100963.34;6003239;28;20438;-72
2023/03/21 02:58:00;;;;;;;26.80;12.00;;;;;;;7.03;100.00;100971.53;6001758;28;20078;-72
2023/03/21 03:00:56;;;;;;;28.05;11.95;;;;;;;6.96;100.00;100962.38;6003418;28;20038;-72
2023/03/21 03:03:52;;;;;;;23.80;11.93;;;;;;;6.95;100.00;100956.28;6002344;28;20494;-72
2023/03/21 03:07:25;;;;;;;28.08;12.82;;;;;;;7.04;100.00;100974.03;6002337;28;20042;-71
2023/03/21 03:10:39;;;;;;;27.83;11.65;;;;;;;7.06;100.00;100972.13;6003081;28;20049;-72
2023/03/21 03:13:42;;;;;;;;;;;;;;;7.09;100.00;100963.16;6002982;28;20178;-73
2023/03/21 03:17:08;;;;;;;30.15;12.43;;;;;;;7.08;100.00;100964.94;6001412;28;20013;-72
2023/03/21 03:20:32;;;;;;;24.45;10.85;;;;;;;7.16;100.00;100962.56;5997137;28;20042;-72
2023/03/21 03:23:47;;;;;;;28.45;12.48;;;;;;;7.08;100.00;100958.81;6002033;28;20038;-72
2023/03/21 03:26:48;;;;;;;25.45;12.93;;;;;;;7.11;100.00;100951.53;6002651;28;20042;-73
2023/03/21 03:29:46;;;;;;;30.40;12.45;;;;;;;7.15;100.00;100963.50;6002401;28;20478;-73
2023/03/21 03:32:44;;;;;;;29.00;12.93;;;;;;;7.12;100.00;100958.47;6017097;28;20039;-73
2023/03/21 03:35:40;;;;;;;27.95;12.38;;;;;;;7.05;100.00;100948.50;6001413;28;20031;-73
2023/03/21 03:38:36;;;;;;;25.20;12.10;;;;;;;7.08;100.00;100954.41;6017433;28;20023;-73
2023/03/21 03:41:37;;;;;;;32.55;12.77;;;;;;;7.08;100.00;100949.13;6002374;28;20031;-73
2023/03/21 03:44:33;;;;;;;32.97;12.90;;;;;;;7.16;100.00;100961.72;6017016;28;20034;-72
2023/03/21 03:47:37;;;;;;;28.17;11.88;;;;;;;7.17;100.00;100948.38;6001382;28;20027;-72
2023/03/21 03:50:41;;;;;;;25.77;11.25;;;;;;;7.23;100.00;100951.53;6002526;28;20031;-73
2023/03/21 03:53:46;;;;;;;28.17;13.05;;;;;;;7.18;100.00;100946.59;6017417;28;20042;-73
2023/03/21 03:56:42;;;;;;;28.35;11.30;;;;;;;7.24;100.00;100945.28;6000994;28;20084;-73
2023/03/21 03:59:39;;;;;;;24.80;11.55;;;;;;;7.20;100.00;100932.34;6000982;28;20035;-73
2023/03/21 04:02:35;;;;;;;26.95;11.25;;;;;;;7.28;100.00;100949.38;6000343;28;20057;-73
2023/03/21 04:05:31;;;;;;;26.55;11.57;;;;;;;7.24;100.00;100937.38;6002031;28;20074;-73
2023/03/21 04:08:26;;;;;;;25.27;10.98;;;;;;;7.24;100.00;100926.81;6002217;28;20039;-73
2023/03/21 04:11:22;;;;;;;24.20;10.90;;;;;;;7.23;100.00;100925.16;6001716;28;20058;-71
2023/03/21 04:14:17;;;;;;;26.42;11.95;;;;;;;7.25;100.00;100924.09;6002006;28;20035;-72
2023/03/21 04:17:13;;;;;;;25.67;11.53;;;;;;;7.26;100.00;100931.03;6001554;28;20580;-72
2023/03/21 04:20:09;;;;;;;25.08;11.52;;;;;;;7.19;100.00;100921.91;6002435;28;20490;-71
2023/03/21 04:23:05;;;;;;;29.50;11.32;;;;;;;7.21;100.00;100922.63;6001132;28;20069;-72
2023/03/21 04:26:00;;;;;;;31.52;12.35;;;;;;;7.19;100.00;100919.28;6001997;28;20383;-71
2023/03/21 04:28:55;;;;;;;33.57;12.83;;;;;;;7.24;100.00;100930.31;6004058;28;20038;-72
2023/03/21 04:31:52;;;;;;;35.77;12.73;;;;;;;7.32;100.00;100940.25;6005707;28;20041;-72
2023/03/21 04:34:48;;;;;;;35.17;13.25;;;;;;;7.34;100.00;100941.00;6005958;28;20178;-72
2023/03/21 04:37:44;;;;;;;28.75;12.93;;;;;;;7.20;100.00;100916.50;6005739;28;20043;-72
2023/03/21 04:40:39;;;;;;;28.83;12.30;;;;;;;7.25;100.00;100920.59;6006587;28;20114;-72
2023/03/21 04:43:35;;;;;;;33.30;12.27;;;;;;;7.24;100.00;100918.91;6005600;28;20093;-71
2023/03/21 04:46:30;;;;;;;30.58;12.48;;;;;;;7.24;100.00;100916.28;6006489;28;20081;-72
2023/03/21 04:49:26;;;;;;;28.37;12.20;;;;;;;7.31;100.00;100928.03;6006111;28;20035;-72
2023/03/21 04:52:21;;;;;;;34.65;12.82;;;;;;;7.30;100.00;100926.34;6004025;28;20630;-71
2023/03/21 04:55:20;;;;;;;26.67;11.83;;;;;;;7.24;100.00;100919.75;6005672;28;20118;-72
2023/03/21 04:58:15;;;;;;;28.23;10.90;;;;;;;7.18;100.00;100913.16;6006044;28;20270;-72
2023/03/21 05:01:13;;;;;;;30.73;12.75;;;;;;;7.28;100.00;100928.28;6004524;28;20141;-71
2023/03/21 05:04:10;;;;;;;27.73;11.90;;;;;;;7.31;100.00;100933.31;6005240;28;20039;-71
2023/03/21 05:07:05;;;;;;;28.65;11.45;;;;;;;7.19;100.00;100921.91;6005637;28;20129;-71
2023/03/21 05:10:00;;;;;;;27.43;11.60;;;;;;;7.15;100.00;100915.19;6006077;28;20496;-71
2023/03/21 05:12:56;;;;;;;29.88;11.50;;;;;;;7.28;100.00;100936.19;6005112;28;20027;-72
2023/03/21 05:15:51;;;;;;;30.90;11.73;;;;;;;7.27;100.00;100939.78;6005040;28;20117;-72
2023/03/21 05:18:49;;;;;;;27.60;10.80;;;;;;;7.13;100.00;100925.03;6005743;28;20026;-71
2023/03/21 05:21:45;;;;;;;22.90;10.68;;;;;;;7.28;100.00;100941.47;6004983;28;20490;-71
2023/03/21 05:24:41;;;;;;;24.55;11.20;;;;;;;7.16;100.00;100917.72;6005058;28;20041;-72
2023/03/21 05:27:36;;;;;;;25.60;11.07;;;;;;;7.14;100.00;100917.00;6005415;28;20043;-71
2023/03/21 05:30:32;;;;;;;28.00;10.90;;;;;;;7.17;100.00;100918.56;6004667;28;20387;-72
2023/03/21 05:33:27;;;;;;;25.33;10.88;;;;;;;7.13;100.00;100917.97;6004671;28;20316;-71
2023/03/21 05:36:22;;;;;;;22.73;10.77;;;;;;;7.16;100.00;100917.72;6004684;28;20035;-72
2023/03/21 05:39:18;;;;;;;24.97;11.50;;;;;;;7.18;100.00;100923.72;6005001;28;20034;-72
2023/03/21 05:42:13;;;;;;;29.00;11.13;;;;;;;7.25;100.00;100928.50;6004141;28;20057;-71
2023/03/21 05:45:09;;;;;;;28.57;11.03;;;;;;;7.17;100.00;100919.38;6004867;28;20422;-71
2023/03/21 05:48:04;;;;;;;27.00;11.57;;;;;;;7.16;100.00;100920.34;6004974;28;20031;-71
2023/03/21 05:51:00;;;;;;;28.15;11.27;;;;;;;7.23;100.00;100915.44;6004871;28;20457;-72
2023/03/21 05:53:56;;;;;;;38.38;11.55;;;;;;;7.17;100.00;100911.47;6003637;28;20034;-72
2023/03/21 05:56:51;;;;;;;30.00;10.35;;;;;;;7.35;100.00;100929.47;6004778;28;20034;-72
2023/03/21 05:59:46;;;;;;;25.83;9.80;;;;;;;7.26;100.00;100914.34;6003801;28;20368;-71
2023/03/21 06:02:41;;;;;;;26.23;10.63;;;;;;;7.30;100.00;100916.66;6003853;28;20042;-72
2023/03/21 06:05:37;;;;;;;25.63;10.43;;;;;;;7.42;100.00;100922.75;6004397;28;20062;-72
2023/03/21 06:08:32;;;;;;;20.43;9.90;;;;;;;7.48;100.00;100923.09;6004616;28;20057;-71
2023/03/21 06:11:30;;;;;;;26.83;10.47;;;;;;;7.47;100.00;100918.81;6003599;28;20035;-75
2023/03/21 06:14:25;;;;;;;21.58;10.02;;;;;;;7.47;100.00;100910.03;6003161;28;20286;-73
2023/03/21 06:17:21;;;;;;;27.80;9.40;;;;;;;7.55;100.00;100926.09;6004092;28;20031;-72
2023/03/21 06:20:16;;;;;;;26.67;10.52;;;;;;;7.56;100.00;100935.69;6003627;28;20278;-72
2023/03/21 06:23:12;;;;;;;23.25;10.13;;;;;;;7.47;100.00;100917.97;6001507;28;20034;-72
2023/03/21 06:26:07;;;;;;;22.90;9.70;;;;;;;7.50;100.00;100913.25;5995041;28;20406;-73
2023/03/21 06:29:02;;;;;;;19.40;9.17;;;;;;;7.62;100.00;100924.66;6001173;28;20042;-73
2023/03/21 06:31:58;;;;;;;24.53;9.13;;;;;;;7.66;100.00;100921.63;6002968;28;20270;-72
2023/03/21 06:34:53;;;;;;;20.50;8.03;;;;;;;7.74;100.00;100926.31;6003785;28;20298;-72
2023/03/21 06:37:48;;;;;;;19.97;8.60;;;;;;;7.83;100.00;100928.22;6003845;28;20041;-73
2023/03/21 06:40:47;;;;;;;21.60;8.53;;;;;;;7.89;100.00;100937.44;6003704;28;20410;-72
2023/03/21 06:43:43;;;;;;;21.00;8.23;;;;;;;7.89;100.00;100937.44;6002372;28;20544;-74
2023/03/21 06:46:38;;;;;;;18.70;7.75;;;;;;;7.97;100.00;100933.22;6003678;28;20035;-73
2023/03/21 06:49:34;;;;;;;21.07;7.50;;;;;;;8.00;100.00;100932.97;6003358;28;20042;-72
2023/03/21 06:52:29;;;;;;;19.25;8.18;;;;;;;7.94;100.00;100914.97;6002009;28;20055;-71
2023/03/21 06:55:25;;;;;;;19.27;7.77;;;;;;;8.03;100.00;100929.25;6002080;28;20100;-72
2023/03/21 06:58:21;;;;;;;16.58;7.68;;;;;;;7.95;100.00;100916.66;6003485;28;20026;-72
2023/03/21 07:01:17;;;;;;;20.65;8.98;;;;;;;8.06;100.00;100915.78;6003038;28;20069;-72
2023/03/21 07:04:12;;;;;;;17.60;8.60;;;;;;;7.99;100.00;100920.72;6002392;28;20118;-71
2023/03/21 07:07:07;;;;;;;16.53;7.20;;;;;;;8.02;100.00;100923.13;6002919;28;20499;-72
2023/03/21 07:10:03;;;;;;;20.40;8.63;;;;;;;8.05;100.00;100925.50;6002545;28;20035;-72
2023/03/21 07:12:59;;;;;;;15.70;7.28;;;;;;;8.06;100.00;100921.91;6002382;28;20058;-73
2023/03/21 07:15:54;;;;;;;20.50;8.13;;;;;;;8.01;100.00;100910.06;6002992;28;20053;-73
2023/03/21 07:18:50;;;;;;;21.40;8.60;;;;;;;8.22;100.00;100935.56;6001873;28;20062;-72
2023/03/21 07:21:45;;;;;;;14.70;6.70;;;;;;;8.24;100.00;100933.63;6002617;28;20054;-72
2023/03/21 07:24:40;;;;;;;19.70;6.37;;;;;;;8.42;100.00;100941.03;6002442;28;20043;-73
2023/03/21 07:27:36;;;;;;;15.57;6.97;;;;;;;8.49;100.00;100944.84;6002901;28;20030;-73
2023/03/21 07:30:31;;;;;;;17.50;6.90;;;;;;;8.45;100.00;100940.78;6002215;28;20276;-73
2023/03/21 07:33:27;;;;;;;16.60;7.20;;;;;;;8.48;100.00;100944.00;6001873;28;20073;-73
2023/03/21 07:36:22;;;;;;;18.38;6.80;;;;;;;8.45;100.00;100935.50;6001846;28;20033;-73
2023/03/21 07:39:19;;;;;;;14.57;6.13;;;;;;;8.54;100.00;100937.38;6002123;28;20739;-73
2023/03/21 07:42:14;;;;;;;13.65;6.45;;;;;;;8.62;100.00;100927.00;6001063;28;20039;-73
2023/03/21 07:45:11;;;;;;;16.08;6.75;;;;;;;8.61;100.00;100922.69;6002405;28;20035;-74
2023/03/21 07:48:08;;;;;;;20.13;6.93;;;;;;;8.43;100.00;100903.06;6001473;28;20125;-72
2023/03/21 07:51:05;;;;;;;18.33;6.78;;;;;;;8.55;100.00;100933.75;6002153;28;20089;-72
2023/03/21 07:54:01;;;;;;;17.35;7.32;;;;;;;8.56;100.00;100919.59;6001228;28;20034;-72
2023/03/21 07:56:56;;;;;;;18.02;6.10;;;;;;;8.68;100.00;100934.41;6002141;28;20380;-73
2023/03/21 07:59:51;;;;;;;19.23;7.67;;;;;;;8.52;100.00;100902.31;6002008;28;20043;-72
2023/03/21 08:02:48;;;;;;;18.80;6.53;;;;;;;8.47;100.00;100883.34;6003561;28;20031;-73
2023/03/21 08:05:43;;;;;;;11.15;5.50;;;;;;;8.70;100.00;100903.38;6006782;28;20426;-73
2023/03/21 08:08:39;;;;;;;15.82;6.53;;;;;;;8.81;100.00;100903.31;6004812;28;20062;-73
2023/03/21 08:11:34;;;;;;;15.30;6.40;;;;;;;8.76;100.00;100903.72;6006650;28;20043;-73
2023/03/21 08:14:29;;;;;;;15.83;7.50;;;;;;;8.76;100.00;100916.94;6006083;28;20518;-73
2023/03/21 08:17:25;;;;;;;14.80;7.13;;;;;;;8.75;100.00;100912.59;6006313;28;20034;-73
2023/03/21 08:20:22;;;;;;;17.57;6.77;;;;;;;8.80;100.00;100901.66;6006510;28;20061;-73
2023/03/21 08:23:17;;;;;;;15.25;6.68;;;;;;;9.07;100.00;100912.53;6005541;28;20039;-72
2023/03/21 08:26:17;;;;;;;14.37;6.77;;;;;;;9.22;100.00;100903.28;6006294;28;20035;-73
2023/03/21 08:29:12;;;;;;;17.05;7.22;;;;;;;9.24;100.00;100906.63;6005957;28;20303;-72
2023/03/21 08:32:07;;;;;;;20.25;6.63;;;;;;;9.18;99.80;100906.31;6005760;28;20111;-73
2023/03/21 08:35:08;;;;;;;14.83;6.07;;;;;;;9.39;99.50;100926.47;6005590;28;20033;-73
2023/03/21 08:38:04;;;;;;;14.38;6.07;;;;;;;9.53;99.60;100915.53;6005546;28;20030;-73
2023/03/21 08:41:00;;;;;;;18.35;7.22;;;;;;;9.46;98.57;100914.38;6006233;28;20038;-73
2023/03/21 08:43:55;;;;;;;15.70;5.97;;;;;;;9.72;99.23;100921.84;6001802;28;20375;-73
2023/03/21 08:46:50;;;;;;;12.23;5.53;;;;;;;10.12;96.99;100925.25;6005771;28;20372;-74
2023/03/21 08:49:46;;;;;;;13.27;5.53;;;;;;;10.36;95.46;100936.31;6005646;28;20041;-74
2023/03/21 08:52:41;;;;;;;11.95;5.93;;;;;;;10.11;94.82;100920.91;6004975;28;20030;-73
2023/03/21 08:55:37;;;;;;;15.17;6.17;;;;;;;10.18;94.47;100916.78;6004044;28;20031;-74
2023/03/21 08:58:32;;;;;;;13.77;5.90;;;;;;;10.34;92.75;100898.53;6003601;28;20290;-73
2023/03/21 09:01:28;;;;;;;13.47;6.03;;;;;;;10.65;92.53;100907.97;6003971;28;20519;-73
2023/03/21 09:04:24;;;;;;;13.82;6.47;;;;;;;10.63;90.80;100915.25;6003629;28;20278;-73
2023/03/21 09:07:25;;;;;;;15.95;6.13;;;;;;;10.68;90.06;100922.78;6004396;28;20110;-74
2023/03/21 09:10:21;;;;;;;13.15;5.50;;;;;;;10.67;90.62;100921.09;5997008;28;20043;-75
2023/03/21 09:13:16;;;;;;;14.77;5.70;;;;;;;10.82;89.63;100924.16;6002701;28;20395;-73
2023/03/21 09:16:12;;;;;;;16.37;6.67;;;;;;;10.58;90.05;100901.56;6004101;28;20053;-74
2023/03/21 09:19:07;;;;;;;21.02;5.70;;;;;;;10.37;90.59;100926.56;6004665;28;20042;-74
2023/03/21 09:22:03;;;;;;;16.08;5.90;;;;;;;10.40;92.11;100924.47;6004755;28;20039;-73
2023/03/21 09:25:06;;;;;;;15.73;6.05;;;;;;;10.67;91.01;100921.94;6005330;28;20126;-73
2023/03/21 09:28:03;;;;;;;15.50;6.05;;;;;;;10.58;89.02;100885.66;6005249;28;20039;-74
2023/03/21 09:31:01;;;;;;;17.60;5.85;;;;;;;10.75;87.92;100906.16;6004993;28;20042;-74
2023/03/21 09:33:57;;;;;;;15.27;5.97;;;;;;;10.90;88.40;100919.81;6003306;28;20050;-73
2023/03/21 09:36:55;;;;;;;14.10;5.55;;;;;;;10.90;87.93;100905.72;6005252;28;20034;-74
2023/03/21 09:39:51;;;;;;;13.18;5.70;;;;;;;10.95;88.78;100922.84;6004629;28;20042;-73
2023/03/21 09:42:50;;;;;;;14.77;5.82;;;;;;;11.09;87.91;100916.25;6003870;28;20042;-73
2023/03/21 09:45:51;;;;;;;12.98;5.18;;;;;;;11.07;88.18;100915.56;6018385;28;20034;-73
2023/03/21 09:48:56;;;;;;;15.98;6.30;;;;;;;11.13;87.64;100909.69;6018233;28;20038;-74
2023/03/21 09:51:54;;;;;;;15.10;6.05;;;;;;;11.58;87.24;100913.28;6003353;28;20072;-73
2023/03/21 09:54:50;;;;;;;19.83;7.13;;;;;;;11.29;86.64;100916.06;6004575;28;20046;-74
2023/03/21 09:57:48;;;;;;;14.50;7.50;;;;;;;11.43;87.17;100913.91;6019492;28;20049;-73
2023/03/21 10:00:46;;;;;;;14.15;6.40;;;;;;;11.59;85.18;100904.31;6019275;28;20447;-74
2023/03/21 10:03:42;;;;;;;14.55;5.70;;;;;;;11.52;86.93;100919.19;6002776;28;20439;-73
2023/03/21 10:06:40;;;;;;;21.30;6.28;;;;;;;11.20;87.73;100897.50;6004000;28;20443;-74
2023/03/21 10:09:38;;;;;;;14.00;6.28;;;;;;;11.28;88.18;100905.56;6002199;28;20038;-74
2023/03/21 10:12:33;;;;;;;15.60;6.53;;;;;;;11.21;88.56;100896.53;6002134;28;20041;-74
2023/03/21 10:15:29;;;;;;;17.45;5.97;;;;;;;11.61;87.29;100905.00;6003347;28;20375;-74
2023/03/21 10:18:26;;;;;;;16.93;6.77;;;;;;;11.94;84.35;100893.78;6003332;28;20049;-74
2023/03/21 10:21:24;;;;;;;11.68;5.93;;;;;;;12.08;83.66;100896.91;6003408;28;20825;-73
2023/03/21 10:24:25;;;;;;;14.30;6.05;;;;;;;11.94;83.54;100883.16;6003176;28;20039;-73
2023/03/21 10:27:21;;;;;;;10.90;5.45;;;;;;;12.12;82.33;100879.69;5998690;28;20038;-75
2023/03/21 10:30:27;;;;;;;15.23;6.30;;;;;;;12.43;80.58;100887.13;6002513;28;20039;-74
2023/03/21 10:33:25;;;;;;;16.15;6.40;;;;;;;12.76;79.31;100876.72;6000530;28;20042;-73
2023/03/21 10:36:24;;;;;;;16.40;6.60;;;;;;;12.58;80.17;100874.09;6002945;28;20038;-72
2023/03/21 10:39:30;;;;;;;14.80;5.65;;;;;;;12.98;78.17;100865.53;6003189;28;20125;-73
2023/03/21 10:42:28;;;;;;;14.50;5.57;;;;;;;13.05;77.04;100875.41;5999223;28;20034;-73
2023/03/21 10:45:24;;;;;;;11.32;5.15;;;;;;;12.84;78.04;100877.59;6001078;28;20042;-73
2023/03/21 10:48:35;;;;;;;10.77;4.90;;;;;;;12.60;78.00;100866.81;6118194;28;20402;-74
2023/03/21 10:51:32;;;;;;;12.77;4.95;;;;;;;12.42;78.99;100855.34;6118160;28;20047;-73
2023/03/21 10:54:30;;;;;;;17.10;6.30;;;;;;;12.66;78.23;100874.16;6116319;28;20040;-73
2023/03/21 10:57:25;;;;;;;14.10;5.50;;;;;;;12.72;77.54;100878.03;6117771;28;20495;-73
2023/03/21 11:00:25;;;;;;;13.95;5.30;;;;;;;12.78;76.33;100869.41;6117009;28;20041;-73
2023/03/21 11:03:22;;;;;;;13.35;4.97;;;;;;;12.65;77.11;100868.97;6112672;28;20045;-75
2023/03/21 11:06:20;;;;;;;15.90;5.15;;;;;;;12.51;76.59;100873.03;6117593;28;20036;-74
2023/03/21 11:09:22;;;;;;;16.13;5.18;;;;;;;12.60;77.58;100850.84;6116590;28;20033;-72
2023/03/21 11:12:27;;;;;;;14.15;5.85;;;;;;;12.52;76.51;100866.75;6116521;28;20112;-72
2023/03/21 11:15:36;;;;;;;12.23;5.15;;;;;;;12.41;77.17;100845.69;6117906;28;20036;-74
2023/03/21 11:18:34;;;;;;;12.90;5.35;;;;;;;12.26;77.03;100855.19;6111642;28;20033;-72
2023/03/21 11:21:36;;;;;;;15.50;5.63;;;;;;;12.04;78.67;100866.31;6118026;28;20052;-71
2023/03/21 11:24:32;;;;;;;13.00;4.88;;;;;;;11.96;80.29;100875.03;6115604;28;20094;-71
2023/03/21 11:27:28;;;;;;;12.75;4.75;;;;;;;11.85;82.48;100867.28;6116102;28;20036;-72
2023/03/21 11:30:26;;;;;;;15.50;5.90;;;;;;;11.90;83.78;100871.16;6117320;28;20029;-71
2023/03/21 11:33:26;;;;;;;18.17;5.05;;;;;;;11.71;85.65;100858.00;6114929;28;20037;-72
2023/03/21 11:36:21;;;;;;;;;;;;;;;11.67;87.22;100859.25;6117645;28;20025;-72
2023/03/21 11:39:32;;;;;;;15.37;4.90;;;;;;;11.64;89.04;100864.88;6116979;28;19915;-72
2023/03/21 11:42:40;;;;;;;15.43;4.80;;;;;;;11.67;88.62;100853.94;6116062;28;20480;-73
2023/03/21 11:45:37;;;;;;;13.50;5.35;;;;;;;11.84;88.87;100858.50;6116376;28;20115;-72
2023/03/21 11:48:39;;;;;;;10.10;4.82;;;;;;;11.68;87.10;100855.63;6116939;28;20039;-72
2023/03/21 11:51:58;;;;;;;9.98;4.82;;;;;;;11.70;86.75;100858.16;6115296;28;20041;-72
2023/03/21 11:55:17;;;;;;;10.95;4.75;;;;;;;11.52;87.79;100836.03;6115443;28;20494;-73
2023/03/21 11:58:32;;;;;;;14.35;4.95;;;;;;;11.58;88.93;100835.41;6107700;28;20159;-72
2023/03/21 12:01:38;;;;;;;10.30;5.00;;;;;;;11.65;89.45;100820.56;6099615;28;20037;-72
2023/03/21 12:04:58;;;;;;;13.55;4.95;;;;;;;11.84;87.42;100833.75;6099671;28;20090;-72
2023/03/21 12:07:59;;;;;;;12.88;4.85;;;;;;;12.26;87.87;100823.28;6100449;28;20029;-72
2023/03/21 12:10:54;;;;;;;10.68;4.50;;;;;;;12.54;85.60;100832.81;6098173;28;20036;-72
2023/03/21 12:14:00;;;;;;;14.07;4.27;;;;;;;12.42;85.45;100821.59;6099930;28;20029;-72
2023/03/21 12:17:04;;;;;;;8.38;3.90;;;;;;;12.24;84.86;100820.81;6100291;28;20284;-72
2023/03/21 12:20:20;;;;;;;13.40;4.15;;;;;;;12.45;85.96;100817.78;6100340;28;20102;-72
2023/03/21 12:23:31;;;;;;;9.77;5.05;;;;;;;12.08;86.98;100815.34;6098693;28;20504;-72
2023/03/21 12:27:05;;;;;;;10.88;4.82;;;;;;;11.63;88.91;100820.69;6100130;28;20033;-72
2023/03/21 12:30:10;;;;;;;12.75;5.00;;;;;;;11.35;93.57;100808.44;6083569;28;20182;-72
2023/03/21 12:33:28;;;;;;;13.82;5.60;;;;;;;11.10;96.20;100811.78;6099494;28;20028;-71
2023/03/21 12:36:58;;;;;;;15.75;6.10;;;;;;;10.89;98.99;100808.53;6099856;28;20052;-70
2023/03/21 12:40:03;;;;;;;14.75;6.40;;;;;;;10.69;100.00;100807.75;6085125;28;20128;-70
2023/03/21 12:43:10;;;;;;;12.88;5.60;;;;;;;10.43;100.00;100796.13;6097693;28;20120;-71
2023/03/21 12:46:23;;;;;;;18.52;7.47;;;;;;;10.35;100.00;100788.88;6090812;28;20487;-70
2023/03/21 12:49:48;;;;;;;20.55;6.80;;;;;;;10.48;100.00;100800.00;6098612;28;20163;-70
2023/03/21 12:52:48;;;;;;;19.45;7.97;;;;;;;10.30;100.00;100788.44;6080127;28;20468;-71
2023/03/21 12:55:43;;;;;;;15.40;6.70;;;;;;;10.25;100.00;100793.34;6099369;28;20377;-70
2023/03/21 12:59:07;;;;;;;19.15;7.22;;;;;;;10.16;100.00;100788.91;6098296;28;20087;-70
2023/03/21 13:02:29;;;;;;;18.30;7.30;;;;;;;10.17;100.00;100798.50;6098424;28;20080;-70
2023/03/21 13:06:00;;;;;;;20.17;7.70;;;;;;;10.10;100.00;100797.38;6095431;28;20032;-71
2023/03/21 13:09:04;;;;;;;18.92;7.63;;;;;;;10.19;100.00;100790.44;6092027;28;20052;-71
2023/03/21 13:12:06;;;;;;;21.38;8.05;;;;;;;10.14;100.00;100782.88;6096315;28;20044;-71
2023/03/21 13:15:12;;;;;;;21.40;8.20;;;;;;;10.24;100.00;100762.53;6097560;28;20044;-71
2023/03/21 13:18:16;;;;;;;21.73;8.02;;;;;;;10.43;100.00;100770.44;6098966;28;20149;-70
2023/03/21 13:21:19;;;;;;;22.55;8.23;;;;;;;10.53;100.00;100760.63;6088920;28;20033;-71
2023/03/21 13:24:37;;;;;;;17.90;7.50;;;;;;;10.42;100.00;100758.16;6096668;28;20051;-72
2023/03/21 13:27:34;;;;;;;19.67;8.32;;;;;;;10.46;100.00;100764.00;6085562;28;20392;-71
2023/03/21 13:30:31;;;;;;;20.60;7.85;;;;;;;10.37;100.00;100764.88;6097249;28;20032;-71
2023/03/21 13:33:33;;;;;;;19.27;7.38;;;;;;;10.40;100.00;100765.44;6097394;28;20095;-71
2023/03/21 13:36:32;;;;;;;16.67;7.78;;;;;;;10.38;100.00;100759.41;6098695;28;20036;-72
2023/03/21 13:39:28;;;;;;;23.83;8.60;;;;;;;10.50;100.00;100755.63;6096654;28;20047;-73
2023/03/21 13:42:30;;;;;;;26.77;8.80;;;;;;;10.52;100.00;100755.47;6095552;28;20033;-74